KGDB

Granite Falls Municipal / Lenzen-Roe-Fagen Memorial Field Airport

Granite Falls, Minnesota, USA
METAR KGDB 272359Z AUTO 14009G16KT 10SM CLR 36/14 A2975 RMK AO2
Observed Flight Rules
May-27 @ 23:59 UTC (58 minutes ago) Visual Flight Rules
Wind Visibility Clouds
140° at 9 knots
 Gusting to 16 knots
10 miles
  • Clear skies
Temperatures Readings
Current 36°C / 97°F
Dewpoint 14°C / 57°F
Humidity 27%
Altimeter 29.75" Hg
Pressure 1007 hPa
Elevation 319
METAR KGDB 272359Z AUTO 14009G16KT 10SM CLR 36/14 A2975 RMK AO2
Observed Flight Rules
May-27 @ 23:59 UTC
(58 minutes ago)
VFR
Wind Visibility
140° at 9 knots
 Gusting to 16 knots
10 miles
Clouds
  • Clear skies
Temperature Dewpoint
36°C / 97°F 14°C / 57°F
Humidity Altimeter Pressure
27% 29.75" Hg 1007 hPa